Time;durP1;ratioP1;P1;durP2;ratioP2;P2;SDS_P1;SDS_P2;PMS_P1;PMS_P2;Temp;Humidity;BMP_temperature;BMP_pressure;BME280_temperature;BME280_humidity;BME280_pressure;Samples;Min_cycle;Max_cycle;Signal;HPM_P1;HPM_P2
2022/06/24 00:02:16;;;;;;;3.20;2.85;;;;;;;;;;5034375;28;20166;-70
2022/06/24 00:04:42;;;;;;;2.50;2.30;;;;;;;;;;5051379;28;20124;-69
2022/06/24 00:07:15;;;;;;;3.60;3.33;;;;;;;;;;5033935;28;20049;-69
2022/06/24 00:09:41;;;;;;;3.25;3.03;;;;;;;;;;5051766;28;20037;-70
2022/06/24 00:12:08;;;;;;;3.08;2.70;;;;;;;;;;5051949;28;20056;-70
2022/06/24 00:14:34;;;;;;;4.93;3.20;;;;;;;;;;5051913;28;20517;-69
2022/06/24 00:17:01;;;;;;;3.00;2.80;;;;;;;;;;5051287;28;20144;-69
2022/06/24 00:19:28;;;;;;;3.67;3.17;;;;;;;;;;5051654;28;20031;-69
2022/06/24 00:22:01;;;;;;;3.95;3.55;;;;;;;;;;5051348;28;20049;-69
2022/06/24 00:24:28;;;;;;;4.53;4.00;;;;;;;;;;5033806;28;20073;-71
2022/06/24 00:26:53;;;;;;;7.28;3.50;;;;;;;;;;5050930;28;20523;-69
2022/06/24 00:29:20;;;;;;;4.90;3.72;;;;;;;;;;5017098;28;20059;-70
2022/06/24 00:32:02;;;;;;;4.55;3.60;;;;;;;;;;5048479;28;20041;-69
2022/06/24 00:34:28;;;;;;;7.50;3.83;;;;;;;;;;5031090;28;20596;-68
2022/06/24 00:36:53;;;;;;;6.13;4.65;;;;;;;;;;5031395;28;20153;-69
2022/06/24 00:39:19;;;;;;;6.07;4.50;;;;;;;;;;5031497;28;20128;-69
2022/06/24 00:41:51;;;;;;;7.22;4.20;;;;;;;;;;5029357;28;20095;-70
2022/06/24 00:44:17;;;;;;;7.22;4.85;;;;;;;;;;5029862;28;20033;-69
2022/06/24 00:46:43;;;;;;;5.55;4.50;;;;;;;;;;5029283;28;20513;-70
2022/06/24 00:49:09;;;;;;;6.38;4.85;;;;;;;;;;5030986;28;20316;-69
2022/06/24 00:51:39;;;;;;;8.88;4.80;;;;;;;;;;5030903;28;20092;-70
2022/06/24 00:54:11;;;;;;;13.13;6.38;;;;;;;;;;5029469;28;20109;-68
2022/06/24 00:56:37;;;;;;;9.63;6.35;;;;;;;;;;5030722;28;20061;-70
2022/06/24 00:59:07;;;;;;;7.88;5.78;;;;;;;;;;5030292;28;20598;-71
2022/06/24 01:01:36;;;;;;;7.78;6.50;;;;;;;;;;5030574;28;20049;-69
2022/06/24 01:04:03;;;;;;;9.70;6.50;;;;;;;;;;5029056;28;20029;-70
2022/06/24 01:06:29;;;;;;;9.43;6.20;;;;;;;;;;5012873;28;20120;-69
2022/06/24 01:08:55;;;;;;;8.70;5.28;;;;;;;;;;5030378;28;20477;-69
2022/06/24 01:11:24;;;;;;;7.07;5.25;;;;;;;;;;5030409;28;20113;-70
2022/06/24 01:13:50;;;;;;;11.88;5.93;;;;;;;;;;5030163;28;20056;-70
2022/06/24 01:16:16;;;;;;;7.82;5.45;;;;;;;;;;5029107;28;20127;-69
2022/06/24 01:18:42;;;;;;;7.95;5.45;;;;;;;;;;5012786;28;20045;-69
2022/06/24 01:21:08;;;;;;;6.78;5.03;;;;;;;;;;5030193;28;20421;-70
2022/06/24 01:23:34;;;;;;;7.97;4.90;;;;;;;;;;5030334;28;20533;-73
2022/06/24 01:25:59;;;;;;;7.43;5.63;;;;;;;;;;5029319;28;20128;-69
2022/06/24 01:28:25;;;;;;;11.70;5.50;;;;;;;;;;5030165;28;20534;-70
2022/06/24 01:30:51;;;;;;;7.30;4.95;;;;;;;;;;5029613;28;20045;-69
2022/06/24 01:33:17;;;;;;;7.25;4.60;;;;;;;;;;5030274;28;20096;-71
2022/06/24 01:35:43;;;;;;;7.57;5.53;;;;;;;;;;5029959;28;20496;-71
2022/06/24 01:38:09;;;;;;;11.63;5.60;;;;;;;;;;5030250;28;20045;-69
2022/06/24 01:40:34;;;;;;;13.48;5.47;;;;;;;;;;5030048;28;20069;-70
2022/06/24 01:43:01;;;;;;;6.93;5.10;;;;;;;;;;5029941;28;20060;-68
2022/06/24 01:45:27;;;;;;;10.57;5.40;;;;;;;;;;5030030;28;20061;-70
2022/06/24 01:47:53;;;;;;;6.60;5.40;;;;;;;;;;5029948;28;20046;-69
2022/06/24 01:50:19;;;;;;;8.85;4.90;;;;;;;;;;5012732;28;20037;-69
2022/06/24 01:52:45;;;;;;;6.50;4.72;;;;;;;;;;5028890;28;20326;-71
2022/06/24 01:55:11;;;;;;;10.10;4.90;;;;;;;;;;5030405;28;20284;-71
2022/06/24 01:57:37;;;;;;;6.82;4.82;;;;;;;;;;5029826;28;20378;-69
2022/06/24 02:00:03;;;;;;;4.88;4.18;;;;;;;;;;5029140;28;20056;-69
2022/06/24 02:02:30;;;;;;;9.18;4.63;;;;;;;;;;5028515;28;20045;-69
2022/06/24 02:04:56;;;;;;;7.43;3.90;;;;;;;;;;5029457;28;20053;-70
2022/06/24 02:07:22;;;;;;;6.10;3.72;;;;;;;;;;5029584;28;20537;-69
2022/06/24 02:15:37;;;;;;;6.22;4.30;;;;;;;;;;5028810;28;20057;-69
2022/06/24 02:18:03;;;;;;;8.95;4.32;;;;;;;;;;5029607;28;20037;-69
2022/06/24 02:20:28;;;;;;;9.90;4.50;;;;;;;;;;5028390;28;20045;-69
2022/06/24 02:22:54;;;;;;;6.82;4.03;;;;;;;;;;5029536;28;20548;-69
2022/06/24 02:25:20;;;;;;;5.25;4.32;;;;;;;;;;5028377;28;20041;-69
2022/06/24 02:27:46;;;;;;;7.05;4.47;;;;;;;;;;5029467;28;20426;-69
2022/06/24 02:30:12;;;;;;;8.10;4.20;;;;;;;;;;5029286;28;20049;-71
2022/06/24 02:32:38;;;;;;;6.45;4.45;;;;;;;;;;5029437;28;20119;-69
2022/06/24 02:35:04;;;;;;;9.63;4.60;;;;;;;;;;5029099;28;20037;-67
2022/06/24 02:37:30;;;;;;;6.20;4.07;;;;;;;;;;5032971;28;20316;-70
2022/06/24 02:40:45;;;;;;;7.10;4.10;;;;;;;;;;5031900;28;20128;-70
2022/06/24 02:42:41;;;;;;;15.10;4.38;;;;;;;;;;5033287;28;20084;-70
2022/06/24 02:45:08;;;;;;;8.52;4.00;;;;;;;;;;5033063;28;20099;-71
2022/06/24 02:47:34;;;;;;;13.93;4.32;;;;;;;;;;5033118;28;20051;-70
2022/06/24 02:50:00;;;;;;;10.77;4.32;;;;;;;;;;5032942;28;20041;-69
2022/06/24 02:52:26;;;;;;;12.90;3.75;;;;;;;;;;5031810;28;20041;-69
2022/06/24 02:54:52;;;;;;;10.23;4.35;;;;;;;;;;5032761;28;20148;-69
2022/06/24 02:57:18;;;;;;;15.85;4.90;;;;;;;;;;5031531;28;20065;-69
2022/06/24 02:59:45;;;;;;;14.07;5.43;;;;;;;;;;5032566;28;20060;-69
2022/06/24 03:02:11;;;;;;;12.93;4.65;;;;;;;;;;5032668;28;20469;-70
2022/06/24 03:04:37;;;;;;;13.75;5.00;;;;;;;;;;5033135;28;20518;-70
2022/06/24 03:07:03;;;;;;;16.70;4.50;;;;;;;;;;5032458;28;20072;-69
2022/06/24 03:09:29;;;;;;;10.57;4.45;;;;;;;;;;5032821;28;20038;-69
2022/06/24 03:11:54;;;;;;;15.32;4.80;;;;;;;;;;5032436;28;20045;-71
2022/06/24 03:14:20;;;;;;;6.68;4.05;;;;;;;;;;5032793;28;20033;-70
2022/06/24 03:16:46;;;;;;;11.05;4.03;;;;;;;;;;5032392;28;20059;-69
2022/06/24 03:19:12;;;;;;;8.30;3.05;;;;;;;;;;5032399;28;20524;-69
2022/06/24 03:21:38;;;;;;;8.13;3.80;;;;;;;;;;5032541;28;20049;-69
2022/06/24 03:24:04;;;;;;;6.55;3.20;;;;;;;;;;5032142;28;20145;-69
2022/06/24 03:26:29;;;;;;;4.93;3.78;;;;;;;;;;5032354;28;20046;-69
2022/06/24 03:28:56;;;;;;;10.70;3.92;;;;;;;;;;5030815;28;20417;-68
2022/06/24 03:31:22;;;;;;;9.38;4.20;;;;;;;;;;5032184;28;20080;-69
2022/06/24 03:33:48;;;;;;;14.10;3.78;;;;;;;;;;5031052;28;20065;-69
2022/06/24 03:36:13;;;;;;;7.05;4.22;;;;;;;;;;5014239;28;20501;-69
2022/06/24 03:38:39;;;;;;;9.52;3.80;;;;;;;;;;5032266;28;20060;-70
2022/06/24 03:41:06;;;;;;;6.82;3.28;;;;;;;;;;5031837;28;20047;-68
2022/06/24 03:43:32;;;;;;;9.43;3.42;;;;;;;;;;5032329;28;20159;-69
2022/06/24 03:46:01;;;;;;;16.55;4.05;;;;;;;;;;5014373;28;20045;-70
2022/06/24 03:48:28;;;;;;;12.35;2.72;;;;;;;;;;5031641;28;20532;-69
2022/06/24 03:50:54;;;;;;;13.38;3.78;;;;;;;;;;5031534;28;20049;-69
2022/06/24 03:53:19;;;;;;;8.57;3.15;;;;;;;;;;5032032;28;20517;-68
2022/06/24 03:55:51;;;;;;;5.95;2.78;;;;;;;;;;4997575;28;20046;-69
2022/06/24 03:58:18;;;;;;;13.65;3.53;;;;;;;;;;5030703;28;20063;-70
2022/06/24 04:00:44;;;;;;;7.40;3.40;;;;;;;;;;5031406;28;20228;-71
2022/06/24 04:03:10;;;;;;;11.85;3.90;;;;;;;;;;5031555;28;20151;-70
2022/06/24 04:05:36;;;;;;;11.25;3.58;;;;;;;;;;5032439;28;20417;-69
2022/06/24 04:08:02;;;;;;;10.00;2.80;;;;;;;;;;5032358;28;20053;-70
2022/06/24 04:10:27;;;;;;;3.97;2.67;;;;;;;;;;5031684;28;20046;-70
2022/06/24 04:12:54;;;;;;;2.88;2.40;;;;;;;;;;5013843;28;20048;-71
2022/06/24 04:15:20;;;;;;;8.00;2.90;;;;;;;;;;5031651;28;20124;-69
2022/06/24 04:17:47;;;;;;;6.55;2.92;;;;;;;;;;5031369;28;20148;-69
2022/06/24 04:20:13;;;;;;;6.53;3.00;;;;;;;;;;5031294;28;20556;-69
2022/06/24 04:22:39;;;;;;;10.65;2.80;;;;;;;;;;5031307;28;20045;-69
2022/06/24 04:25:05;;;;;;;6.53;2.53;;;;;;;;;;5029782;28;20041;-70
2022/06/24 04:27:31;;;;;;;5.07;2.47;;;;;;;;;;5031204;28;20045;-70
2022/06/24 04:30:03;;;;;;;7.88;2.60;;;;;;;;;;5031067;28;20046;-71
2022/06/24 04:32:30;;;;;;;3.13;2.85;;;;;;;;;;5031187;28;20045;-69
2022/06/24 04:34:56;;;;;;;5.95;2.42;;;;;;;;;;5030991;28;20777;-70
2022/06/24 04:37:22;;;;;;;5.88;2.42;;;;;;;;;;5031103;28;20089;-70
2022/06/24 04:39:48;;;;;;;6.18;2.75;;;;;;;;;;5031090;28;20095;-70
2022/06/24 04:42:14;;;;;;;5.32;2.40;;;;;;;;;;5030727;28;20054;-70
2022/06/24 04:44:40;;;;;;;6.15;2.80;;;;;;;;;;5013575;28;20064;-69
2022/06/24 04:47:05;;;;;;;3.55;3.10;;;;;;;;;;5013028;28;20037;-68
2022/06/24 04:49:32;;;;;;;4.20;2.70;;;;;;;;;;5030982;28;20125;-70
2022/06/24 04:51:58;;;;;;;3.65;2.42;;;;;;;;;;5029305;28;20054;-71
2022/06/24 04:54:24;;;;;;;9.23;2.70;;;;;;;;;;5030965;28;20033;-71
2022/06/24 04:56:50;;;;;;;4.85;3.00;;;;;;;;;;5029486;28;20145;-69
2022/06/24 04:59:15;;;;;;;7.25;2.60;;;;;;;;;;5029061;28;20152;-71
2022/06/24 05:01:41;;;;;;;5.80;2.63;;;;;;;;;;5030559;28;20053;-69
2022/06/24 05:04:07;;;;;;;5.68;2.65;;;;;;;;;;5029028;28;20410;-69
2022/06/24 05:06:33;;;;;;;4.80;2.80;;;;;;;;;;5030569;28;20053;-70
2022/06/24 05:08:59;;;;;;;8.13;2.45;;;;;;;;;;5029042;28;20468;-70
2022/06/24 05:11:25;;;;;;;6.82;2.80;;;;;;;;;;5029116;28;20045;-69
2022/06/24 05:13:51;;;;;;;5.20;3.15;;;;;;;;;;5030437;28;20445;-68
2022/06/24 05:16:16;;;;;;;2.50;2.30;;;;;;;;;;5030056;28;20064;-70
2022/06/24 05:18:42;;;;;;;4.72;2.20;;;;;;;;;;5030370;28;20076;-69
2022/06/24 05:21:08;;;;;;;5.75;2.60;;;;;;;;;;5028780;28;20129;-70
2022/06/24 05:23:34;;;;;;;3.85;2.67;;;;;;;;;;5029080;28;20045;-70
2022/06/24 05:26:00;;;;;;;5.25;2.53;;;;;;;;;;5029928;28;20052;-70
2022/06/24 05:28:26;;;;;;;3.75;2.53;;;;;;;;;;5030205;28;20057;-69
2022/06/24 05:30:56;;;;;;;7.93;2.70;;;;;;;;;;5030161;28;20118;-70
2022/06/24 05:33:22;;;;;;;4.18;2.78;;;;;;;;;;5030137;28;20037;-70
2022/06/24 05:35:52;;;;;;;5.97;2.75;;;;;;;;;;5029746;28;20053;-69
2022/06/24 05:38:21;;;;;;;3.25;2.42;;;;;;;;;;5029709;28;20099;-70
2022/06/24 05:40:49;;;;;;;4.50;2.53;;;;;;;;;;5028614;28;20139;-70
2022/06/24 05:43:15;;;;;;;4.75;2.30;;;;;;;;;;5029572;28;20041;-70
2022/06/24 05:45:40;;;;;;;4.72;2.40;;;;;;;;;;5029921;28;20123;-70
2022/06/24 05:48:06;;;;;;;3.75;2.50;;;;;;;;;;5029256;28;20437;-70
2022/06/24 05:50:35;;;;;;;4.28;2.38;;;;;;;;;;5029758;28;20418;-68
2022/06/24 05:55:45;;;;;;;3.92;2.10;;;;;;;;;;5029739;28;20092;-71
2022/06/24 05:58:11;;;;;;;2.50;2.30;;;;;;;;;;5029495;28;20037;-71
2022/06/24 06:00:37;;;;;;;4.47;2.33;;;;;;;;;;5029664;28;20088;-69
2022/06/24 06:03:03;;;;;;;3.22;2.53;;;;;;;;;;5029227;28;20433;-69
2022/06/24 06:05:29;;;;;;;5.32;2.15;;;;;;;;;;5029812;28;20033;-70
2022/06/24 06:07:55;;;;;;;6.13;2.30;;;;;;;;;;5029449;28;20140;-69
2022/06/24 06:10:21;;;;;;;3.65;2.38;;;;;;;;;;5029176;28;20564;-69
2022/06/24 06:12:47;;;;;;;3.97;2.28;;;;;;;;;;5029404;28;20041;-70
2022/06/24 06:15:12;;;;;;;2.92;2.17;;;;;;;;;;5029221;28;20026;-69
2022/06/24 06:17:38;;;;;;;6.97;2.47;;;;;;;;;;5029324;28;20110;-69
2022/06/24 06:20:05;;;;;;;3.30;2.35;;;;;;;;;;5011330;28;20172;-70
2022/06/24 06:22:31;;;;;;;6.93;2.55;;;;;;;;;;5029212;28;20041;-69
2022/06/24 06:24:57;;;;;;;3.65;2.42;;;;;;;;;;5029442;28;20044;-70
2022/06/24 06:27:23;;;;;;;3.35;2.47;;;;;;;;;;5028180;28;20045;-70
2022/06/24 06:29:49;;;;;;;6.88;2.50;;;;;;;;;;5029446;28;20048;-70
2022/06/24 06:32:15;;;;;;;3.95;2.30;;;;;;;;;;5029057;28;20045;-69
2022/06/24 06:34:40;;;;;;;6.75;2.40;;;;;;;;;;5028274;28;20033;-70
2022/06/24 06:37:07;;;;;;;4.45;2.50;;;;;;;;;;5028930;28;20061;-71
2022/06/24 06:39:32;;;;;;;3.20;2.28;;;;;;;;;;5029553;28;20490;-69
2022/06/24 06:41:59;;;;;;;4.43;2.40;;;;;;;;;;5029629;28;20045;-71
2022/06/24 06:44:25;;;;;;;5.25;2.28;;;;;;;;;;5012032;28;20049;-70
2022/06/24 06:46:50;;;;;;;7.95;2.50;;;;;;;;;;5029153;28;20074;-70
2022/06/24 06:49:16;;;;;;;5.00;2.50;;;;;;;;;;5027879;28;20103;-69
2022/06/24 06:51:42;;;;;;;5.82;2.40;;;;;;;;;;5029174;28;20053;-71
2022/06/24 06:54:08;;;;;;;3.05;2.50;;;;;;;;;;5028927;28;20045;-70
2022/06/24 06:56:34;;;;;;;3.83;2.42;;;;;;;;;;5028971;28;20061;-70
2022/06/24 06:59:00;;;;;;;2.35;2.25;;;;;;;;;;5028993;28;20036;-70
2022/06/24 07:01:26;;;;;;;4.28;2.53;;;;;;;;;;5028816;28;20045;-71
2022/06/24 07:03:52;;;;;;;3.05;2.60;;;;;;;;;;5028969;28;20091;-70
2022/06/24 07:06:18;;;;;;;2.28;2.08;;;;;;;;;;5028724;28;20407;-70
2022/06/24 07:08:44;;;;;;;2.88;2.00;;;;;;;;;;5029162;28;20046;-70
2022/06/24 07:11:10;;;;;;;3.28;2.10;;;;;;;;;;5028602;28;20049;-69
2022/06/24 07:13:36;;;;;;;4.22;2.10;;;;;;;;;;5029072;28;20421;-70
2022/06/24 07:16:02;;;;;;;2.92;2.60;;;;;;;;;;5028943;28;20053;-71
2022/06/24 07:18:28;;;;;;;2.72;1.75;;;;;;;;;;5028776;28;20184;-69
2022/06/24 07:20:54;;;;;;;4.13;2.15;;;;;;;;;;5029024;28;20136;-71
2022/06/24 07:23:19;;;;;;;2.30;2.20;;;;;;;;;;5030459;28;20142;-71
2022/06/24 07:25:45;;;;;;;4.00;2.40;;;;;;;;;;5032721;28;20033;-72
2022/06/24 07:28:12;;;;;;;2.42;2.13;;;;;;;;;;5032107;28;20048;-70
2022/06/24 07:30:37;;;;;;;2.70;2.17;;;;;;;;;;5032596;28;20041;-71
2022/06/24 07:33:04;;;;;;;2.30;2.10;;;;;;;;;;5032417;28;20048;-70
2022/06/24 07:35:30;;;;;;;3.08;2.25;;;;;;;;;;5032477;28;20072;-70
2022/06/24 07:37:56;;;;;;;2.42;2.20;;;;;;;;;;5030897;28;20506;-69
2022/06/24 07:40:22;;;;;;;4.95;2.10;;;;;;;;;;5032007;28;20045;-69
2022/06/24 07:42:48;;;;;;;3.83;2.40;;;;;;;;;;5032200;28;20052;-70
2022/06/24 07:45:13;;;;;;;6.47;2.28;;;;;;;;;;5032003;28;20461;-70
2022/06/24 07:47:40;;;;;;;3.22;2.10;;;;;;;;;;5032344;28;20046;-70
2022/06/24 07:50:06;;;;;;;2.97;2.10;;;;;;;;;;5030759;28;20049;-69
2022/06/24 07:52:32;;;;;;;3.08;2.35;;;;;;;;;;5032069;28;20132;-69
2022/06/24 07:57:42;;;;;;;5.35;2.47;;;;;;;;;;5032023;28;20077;-70
2022/06/24 08:00:08;;;;;;;2.58;2.38;;;;;;;;;;5031417;28;20513;-71
2022/06/24 08:02:37;;;;;;;3.17;2.40;;;;;;;;;;5031666;28;20471;-71
2022/06/24 08:05:03;;;;;;;2.70;2.22;;;;;;;;;;5031869;28;20072;-69
2022/06/24 08:07:29;;;;;;;4.97;2.58;;;;;;;;;;5030345;28;20045;-70
2022/06/24 08:09:55;;;;;;;2.30;2.20;;;;;;;;;;5032437;28;20528;-69
2022/06/24 08:12:21;;;;;;;2.45;2.25;;;;;;;;;;5031421;28;20053;-71
2022/06/24 08:14:47;;;;;;;2.50;2.30;;;;;;;;;;5031556;28;20037;-71
2022/06/24 08:17:13;;;;;;;2.95;2.40;;;;;;;;;;5032883;28;20143;-71
2022/06/24 08:19:39;;;;;;;4.28;2.50;;;;;;;;;;5032765;28;20063;-71
2022/06/24 08:22:05;;;;;;;2.80;2.28;;;;;;;;;;5031397;28;20045;-72
2022/06/24 08:24:31;;;;;;;4.80;2.40;;;;;;;;;;5029998;28;20264;-70
2022/06/24 08:26:57;;;;;;;6.47;2.35;;;;;;;;;;5013650;28;20137;-70
2022/06/24 08:29:23;;;;;;;3.75;2.50;;;;;;;;;;5031357;28;20038;-70
2022/06/24 08:31:49;;;;;;;2.60;2.40;;;;;;;;;;5029928;28;20052;-71
2022/06/24 08:34:15;;;;;;;2.22;2.05;;;;;;;;;;5030714;28;20029;-70
2022/06/24 08:36:41;;;;;;;3.70;2.30;;;;;;;;;;5031198;28;20104;-71
2022/06/24 08:39:07;;;;;;;2.42;2.22;;;;;;;;;;5031329;28;20496;-72
2022/06/24 08:41:32;;;;;;;3.53;2.20;;;;;;;;;;5031176;28;20409;-69
2022/06/24 08:43:59;;;;;;;2.40;2.30;;;;;;;;;;5031422;28;20037;-70
2022/06/24 08:46:25;;;;;;;2.60;2.40;;;;;;;;;;5013229;28;20524;-71
2022/06/24 08:48:51;;;;;;;3.78;2.63;;;;;;;;;;5031207;28;20079;-70
2022/06/24 08:51:17;;;;;;;2.97;2.78;;;;;;;;;;5030869;28;20095;-70
2022/06/24 08:53:44;;;;;;;2.50;2.35;;;;;;;;;;5029782;28;20038;-69
2022/06/24 08:56:10;;;;;;;2.22;2.13;;;;;;;;;;5029260;28;20059;-69
2022/06/24 08:58:36;;;;;;;5.13;2.70;;;;;;;;;;5030923;28;20516;-71
2022/06/24 09:01:01;;;;;;;3.95;2.33;;;;;;;;;;5030643;28;20057;-70
2022/06/24 09:03:27;;;;;;;3.35;2.50;;;;;;;;;;5030638;28;20072;-71
2022/06/24 09:05:53;;;;;;;2.97;2.50;;;;;;;;;;5030590;28;20038;-71
2022/06/24 09:08:20;;;;;;;2.47;2.30;;;;;;;;;;5029247;28;20045;-72
2022/06/24 09:13:30;;;;;;;6.95;2.60;;;;;;;;;;5029615;28;20132;-69
2022/06/24 09:15:56;;;;;;;4.93;2.35;;;;;;;;;;5030567;28;20541;-71
2022/06/24 09:18:23;;;;;;;3.63;2.47;;;;;;;;;;5030278;28;20045;-69
2022/06/24 09:20:49;;;;;;;2.38;2.17;;;;;;;;;;5030486;28;20042;-71
2022/06/24 09:23:15;;;;;;;2.38;2.20;;;;;;;;;;5030166;28;20041;-70
2022/06/24 09:25:41;;;;;;;3.22;2.42;;;;;;;;;;5012925;28;20030;-71
2022/06/24 09:28:07;;;;;;;2.30;2.20;;;;;;;;;;5029115;28;20465;-70
2022/06/24 09:30:34;;;;;;;3.72;2.85;;;;;;;;;;5030313;28;20124;-72
2022/06/24 09:33:01;;;;;;;3.45;2.53;;;;;;;;;;5030160;28;20050;-71
2022/06/24 09:35:26;;;;;;;3.63;2.25;;;;;;;;;;5028763;28;20448;-71
2022/06/24 09:37:52;;;;;;;2.92;2.60;;;;;;;;;;5030184;28;20064;-71
2022/06/24 09:40:22;;;;;;;4.93;2.80;;;;;;;;;;5030154;28;20037;-72
2022/06/24 09:42:57;;;;;;;2.83;2.53;;;;;;;;;;5030102;28;20080;-72
2022/06/24 09:45:24;;;;;;;4.53;3.03;;;;;;;;;;5028129;28;20076;-71
2022/06/24 09:47:50;;;;;;;3.60;2.70;;;;;;;;;;5028680;28;20045;-71
2022/06/24 09:50:17;;;;;;;5.50;2.17;;;;;;;;;;5030014;28;20033;-70
2022/06/24 09:52:43;;;;;;;2.67;2.40;;;;;;;;;;5030047;28;20055;-70
2022/06/24 09:55:09;;;;;;;3.60;2.28;;;;;;;;;;5029878;28;20449;-71
2022/06/24 09:57:35;;;;;;;2.85;2.38;;;;;;;;;;5028194;28;20526;-71
2022/06/24 10:02:46;;;;;;;4.53;2.38;;;;;;;;;;5029568;28;20183;-71
2022/06/24 10:05:12;;;;;;;2.85;2.58;;;;;;;;;;5028229;28;20072;-71
2022/06/24 10:07:38;;;;;;;2.88;2.67;;;;;;;;;;5028024;28;20046;-71
2022/06/24 10:10:04;;;;;;;4.82;2.60;;;;;;;;;;5028415;28;20038;-70
2022/06/24 10:12:31;;;;;;;5.22;2.50;;;;;;;;;;5027941;28;20045;-70
2022/06/24 10:14:58;;;;;;;5.30;2.30;;;;;;;;;;5029509;28;20041;-72
2022/06/24 10:17:25;;;;;;;4.82;2.70;;;;;;;;;;5029064;28;20057;-70
2022/06/24 10:19:51;;;;;;;5.47;2.60;;;;;;;;;;5028380;28;20045;-71
2022/06/24 10:22:35;;;;;;;2.58;2.38;;;;;;;;;;5027943;28;20549;-71
2022/06/24 10:25:01;;;;;;;2.50;2.30;;;;;;;;;;5029494;28;20064;-70
2022/06/24 10:27:54;;;;;;;2.42;2.22;;;;;;;;;;5029070;28;20418;-72
2022/06/24 10:30:54;;;;;;;2.40;2.30;;;;;;;;;;5027165;28;20506;-70
2022/06/24 10:33:20;;;;;;;2.72;2.47;;;;;;;;;;5006316;28;20049;-72
2022/06/24 10:35:55;;;;;;;2.47;2.28;;;;;;;;;;5029329;28;20038;-71
2022/06/24 10:38:25;;;;;;;2.53;2.33;;;;;;;;;;5028966;28;20048;-71
2022/06/24 10:40:51;;;;;;;4.20;2.57;;;;;;;;;;5029579;28;20045;-72
2022/06/24 10:43:36;;;;;;;3.30;2.45;;;;;;;;;;5028763;28;20056;-70
2022/06/24 10:46:22;;;;;;;2.80;2.38;;;;;;;;;;5029257;28;20133;-70
2022/06/24 10:48:51;;;;;;;3.20;2.58;;;;;;;;;;5029346;28;20502;-70
2022/06/24 10:51:18;;;;;;;3.20;2.75;;;;;;;;;;5029097;28;20046;-71
2022/06/24 10:54:02;;;;;;;2.72;2.53;;;;;;;;;;5029155;28;20037;-70
2022/06/24 10:56:38;;;;;;;3.38;2.65;;;;;;;;;;5028999;28;20041;-70
2022/06/24 10:59:04;;;;;;;3.13;2.35;;;;;;;;;;5032725;28;20136;-71
2022/06/24 11:01:30;;;;;;;2.08;1.98;;;;;;;;;;5032833;28;20148;-70
2022/06/24 11:03:56;;;;;;;3.13;2.20;;;;;;;;;;5032042;28;20036;-71
2022/06/24 11:06:22;;;;;;;3.47;2.70;;;;;;;;;;5031646;28;20136;-70
2022/06/24 11:08:48;;;;;;;2.30;2.20;;;;;;;;;;5032870;28;20579;-71
2022/06/24 11:11:26;;;;;;;2.47;2.28;;;;;;;;;;5032990;28;20057;-70
2022/06/24 11:13:51;;;;;;;2.42;2.22;;;;;;;;;;5032726;28;20103;-70
2022/06/24 11:16:17;;;;;;;4.00;2.40;;;;;;;;;;5030900;28;20057;-71
2022/06/24 11:18:43;;;;;;;4.38;2.30;;;;;;;;;;5031364;28;20037;-70
2022/06/24 11:21:09;;;;;;;2.10;2.00;;;;;;;;;;5032714;28;20058;-70
2022/06/24 11:23:37;;;;;;;5.45;2.20;;;;;;;;;;5030958;28;20029;-70
2022/06/24 11:26:05;;;;;;;2.70;2.25;;;;;;;;;;5014968;28;20536;-70
2022/06/24 11:28:32;;;;;;;2.55;2.35;;;;;;;;;;5032331;28;20128;-71
2022/06/24 11:31:15;;;;;;;2.78;2.10;;;;;;;;;;5032523;28;20045;-70
2022/06/24 11:33:41;;;;;;;2.60;2.40;;;;;;;;;;5030952;28;20049;-70
2022/06/24 11:36:07;;;;;;;2.03;1.92;;;;;;;;;;5031135;28;20045;-70
2022/06/24 11:38:36;;;;;;;3.95;2.55;;;;;;;;;;5032076;28;20072;-70
2022/06/24 11:41:02;;;;;;;2.30;2.20;;;;;;;;;;5032460;28;20123;-69
2022/06/24 11:43:28;;;;;;;2.53;2.33;;;;;;;;;;5031978;28;20521;-71
2022/06/24 11:45:57;;;;;;;5.03;2.13;;;;;;;;;;5032424;28;20048;-70
2022/06/24 11:48:24;;;;;;;2.92;2.50;;;;;;;;;;5031970;28;20049;-71
2022/06/24 11:50:53;;;;;;;2.10;2.00;;;;;;;;;;5031112;28;20048;-69
2022/06/24 11:53:23;;;;;;;5.22;2.00;;;;;;;;;;5032008;28;20136;-72
2022/06/24 11:55:52;;;;;;;;;;;;;;;;;;5032505;28;20119;-70
2022/06/24 11:58:18;;;;;;;2.42;1.85;;;;;;;;;;5013894;28;19920;-71
2022/06/24 12:00:44;;;;;;;7.50;2.13;;;;;;;;;;5031645;28;20060;-70
2022/06/24 12:03:10;;;;;;;3.58;2.10;;;;;;;;;;5031823;28;20041;-70
2022/06/24 12:05:43;;;;;;;2.20;2.10;;;;;;;;;;5014016;28;20077;-71
2022/06/24 12:08:09;;;;;;;6.30;2.05;;;;;;;;;;5031137;28;20054;-71
2022/06/24 12:10:35;;;;;;;2.92;2.22;;;;;;;;;;5031414;28;20048;-70
2022/06/24 12:13:05;;;;;;;5.18;2.15;;;;;;;;;;5031559;28;20128;-71
2022/06/24 12:15:31;;;;;;;4.10;2.30;;;;;;;;;;5031467;28;20417;-71
2022/06/24 12:17:57;;;;;;;3.97;2.30;;;;;;;;;;5031270;28;20053;-71
2022/06/24 12:20:27;;;;;;;2.83;2.05;;;;;;;;;;5032782;28;20128;-70
2022/06/24 12:23:12;;;;;;;2.58;2.22;;;;;;;;;;5033664;28;20136;-71
2022/06/24 12:25:38;;;;;;;2.58;2.20;;;;;;;;;;5031789;28;20121;-71
2022/06/24 12:28:11;;;;;;;2.40;2.17;;;;;;;;;;5031634;28;20267;-72
2022/06/24 12:30:37;;;;;;;3.67;1.85;;;;;;;;;;5029534;28;20524;-71
2022/06/24 12:33:03;;;;;;;3.78;2.75;;;;;;;;;;5039989;28;20464;-72
2022/06/24 12:35:37;;;;;;;2.10;1.90;;;;;;;;;;5051240;28;20060;-71
2022/06/24 12:38:04;;;;;;;1.98;1.88;;;;;;;;;;5051119;28;20517;-70
2022/06/24 12:40:30;;;;;;;2.17;2.08;;;;;;;;;;5032956;28;20379;-70
2022/06/24 12:43:11;;;;;;;2.65;2.20;;;;;;;;;;5050861;28;20052;-71
2022/06/24 12:45:37;;;;;;;2.65;2.15;;;;;;;;;;5033453;28;20040;-69
2022/06/24 12:50:58;;;;;;;2.95;2.28;;;;;;;;;;5051281;28;20551;-69
2022/06/24 12:53:24;;;;;;;2.13;2.03;;;;;;;;;;5032807;28;20045;-69
2022/06/24 12:55:51;;;;;;;7.82;2.25;;;;;;;;;;5051196;28;20043;-71
2022/06/24 12:58:18;;;;;;;2.00;1.90;;;;;;;;;;5050646;28;20041;-70
2022/06/24 13:00:44;;;;;;;2.00;1.90;;;;;;;;;;5029341;28;20413;-69
2022/06/24 13:03:10;;;;;;;2.10;2.00;;;;;;;;;;5045867;28;20053;-71
2022/06/24 13:05:36;;;;;;;3.13;2.00;;;;;;;;;;5030447;28;20049;-70
2022/06/24 13:08:02;;;;;;;2.83;2.15;;;;;;;;;;5030484;28;20052;-71
2022/06/24 13:10:27;;;;;;;1.98;1.88;;;;;;;;;;5028870;28;20041;-71
2022/06/24 13:12:53;;;;;;;3.83;2.40;;;;;;;;;;5030498;28;20524;-71
2022/06/24 13:15:19;;;;;;;2.58;1.98;;;;;;;;;;5029105;28;20129;-70
2022/06/24 13:17:46;;;;;;;2.58;2.35;;;;;;;;;;5029001;28;20529;-70
2022/06/24 13:20:12;;;;;;;2.22;2.10;;;;;;;;;;5029601;28;20083;-70
2022/06/24 13:22:38;;;;;;;5.15;2.20;;;;;;;;;;5030117;28;20041;-69
2022/06/24 13:25:05;;;;;;;3.22;2.10;;;;;;;;;;5030236;28;20501;-71
2022/06/24 13:27:32;;;;;;;2.50;2.30;;;;;;;;;;5029787;28;20461;-71
2022/06/24 13:29:58;;;;;;;2.88;2.58;;;;;;;;;;5029108;28;20104;-71
2022/06/24 13:32:24;;;;;;;2.53;1.95;;;;;;;;;;5030167;28;20045;-71
2022/06/24 13:34:50;;;;;;;2.40;2.00;;;;;;;;;;5030101;28;20532;-69
2022/06/24 13:37:15;;;;;;;2.30;1.88;;;;;;;;;;5030017;28;20517;-71
2022/06/24 13:39:41;;;;;;;6.38;2.25;;;;;;;;;;5029925;28;20052;-70
2022/06/24 13:42:07;;;;;;;2.33;2.10;;;;;;;;;;5045570;28;20132;-71
2022/06/24 13:44:35;;;;;;;2.45;2.15;;;;;;;;;;5029915;28;20600;-70
2022/06/24 13:47:02;;;;;;;5.25;2.45;;;;;;;;;;5029920;28;20045;-70
2022/06/24 13:49:28;;;;;;;2.10;1.98;;;;;;;;;;5029351;28;20044;-71
2022/06/24 13:51:54;;;;;;;6.13;2.63;;;;;;;;;;5029914;28;20644;-70
2022/06/24 13:54:20;;;;;;;2.45;2.25;;;;;;;;;;5029680;28;20057;-70
2022/06/24 13:56:46;;;;;;;5.35;2.00;;;;;;;;;;5029514;28;20041;-70
2022/06/24 13:59:14;;;;;;;7.15;2.45;;;;;;;;;;5032519;28;20167;-69
2022/06/24 14:01:41;;;;;;;3.92;3.20;;;;;;;;;;5049506;28;20056;-69
2022/06/24 14:04:07;;;;;;;7.10;3.28;;;;;;;;;;5048184;28;20083;-71
2022/06/24 14:06:33;;;;;;;4.45;2.78;;;;;;;;;;5049301;28;20044;-70
2022/06/24 14:08:59;;;;;;;3.05;2.20;;;;;;;;;;5049452;28;20055;-70
2022/06/24 14:11:25;;;;;;;2.90;2.60;;;;;;;;;;5049618;28;20126;-70
2022/06/24 14:13:51;;;;;;;7.20;2.50;;;;;;;;;;5049436;28;20059;-69
2022/06/24 14:16:17;;;;;;;4.07;2.47;;;;;;;;;;5049481;28;20541;-70
2022/06/24 14:18:43;;;;;;;2.28;2.17;;;;;;;;;;5049203;28;20045;-70
2022/06/24 14:21:09;;;;;;;3.00;2.80;;;;;;;;;;5049193;28;20045;-70
2022/06/24 14:26:21;;;;;;;6.75;2.78;;;;;;;;;;5049272;28;20056;-70
2022/06/24 14:28:46;;;;;;;3.75;2.58;;;;;;;;;;5047687;28;20120;-70
2022/06/24 14:31:13;;;;;;;5.43;2.97;;;;;;;;;;5048944;28;20049;-71
2022/06/24 14:33:39;;;;;;;4.45;2.50;;;;;;;;;;5035180;28;20465;-70
2022/06/24 14:36:05;;;;;;;2.58;2.38;;;;;;;;;;5053292;28;20047;-69
2022/06/24 14:41:15;;;;;;;2.67;2.45;;;;;;;;;;5053614;28;20041;-69
2022/06/24 14:43:42;;;;;;;2.60;2.40;;;;;;;;;;5053319;28;20041;-70
2022/06/24 14:46:08;;;;;;;2.53;2.25;;;;;;;;;;5052088;28;20452;-69
2022/06/24 14:48:34;;;;;;;3.10;2.30;;;;;;;;;;5053327;28;20045;-70
2022/06/24 14:51:00;;;;;;;2.45;2.03;;;;;;;;;;5053485;28;20041;-70
2022/06/24 14:53:26;;;;;;;5.55;2.58;;;;;;;;;;5052150;28;20571;-69
2022/06/24 14:55:52;;;;;;;2.58;2.20;;;;;;;;;;5053210;28;20056;-71
2022/06/24 14:58:18;;;;;;;3.40;2.50;;;;;;;;;;5053200;28;20604;-69
2022/06/24 15:00:44;;;;;;;3.78;2.10;;;;;;;;;;5052418;28;20132;-70
2022/06/24 15:03:10;;;;;;;3.92;2.40;;;;;;;;;;5051406;28;20211;-71
2022/06/24 15:05:36;;;;;;;2.25;2.15;;;;;;;;;;5052645;28;20036;-69
2022/06/24 15:08:02;;;;;;;3.20;2.90;;;;;;;;;;5052730;28;20072;-70